sensor_id;sensor_type;location;lat;lon;timestamp;pressure;altitude;pressure_sealevel;temperature
24586;BMP280;12743;52.262;6.172;2023-01-01T00:01:37;99621.78;;;14.66
24586;BMP280;12743;52.262;6.172;2023-01-01T00:04:12;99589.72;;;14.68
24586;BMP280;12743;52.262;6.172;2023-01-01T00:06:40;99579.94;;;14.65
24586;BMP280;12743;52.262;6.172;2023-01-01T00:09:07;99574.63;;;14.61
24586;BMP280;12743;52.262;6.172;2023-01-01T00:11:52;99568.94;;;14.63
24586;BMP280;12743;52.262;6.172;2023-01-01T00:14:18;99594.59;;;14.73
24586;BMP280;12743;52.262;6.172;2023-01-01T00:16:45;99604.81;;;14.78
24586;BMP280;12743;52.262;6.172;2023-01-01T00:19:12;99600.66;;;14.73
24586;BMP280;12743;52.262;6.172;2023-01-01T00:21:38;99550.84;;;14.54
24586;BMP280;12743;52.262;6.172;2023-01-01T00:24:06;99593.13;;;14.68
24586;BMP280;12743;52.262;6.172;2023-01-01T00:26:32;99576.50;;;14.61
24586;BMP280;12743;52.262;6.172;2023-01-01T00:29:01;99636.91;;;14.80
24586;BMP280;12743;52.262;6.172;2023-01-01T00:31:28;99607.09;;;14.69
24586;BMP280;12743;52.262;6.172;2023-01-01T00:33:55;99533.13;;;14.55
24586;BMP280;12743;52.262;6.172;2023-01-01T00:36:23;99565.19;;;14.67
24586;BMP280;12743;52.262;6.172;2023-01-01T00:38:50;99479.53;;;14.47
24586;BMP280;12743;52.262;6.172;2023-01-01T00:41:17;99544.06;;;14.57
24586;BMP280;12743;52.262;6.172;2023-01-01T00:43:44;99524.44;;;14.50
24586;BMP280;12743;52.262;6.172;2023-01-01T00:46:11;99511.66;;;14.42
24586;BMP280;12743;52.262;6.172;2023-01-01T00:48:38;99563.66;;;14.63
24586;BMP280;12743;52.262;6.172;2023-01-01T00:51:06;99471.28;;;14.24
24586;BMP280;12743;52.262;6.172;2023-01-01T00:53:32;99546.31;;;14.55
24586;BMP280;12743;52.262;6.172;2023-01-01T00:55:59;99528.19;;;14.49
24586;BMP280;12743;52.262;6.172;2023-01-01T00:58:25;99540.28;;;14.54
24586;BMP280;12743;52.262;6.172;2023-01-01T01:00:54;99584.06;;;14.66
24586;BMP280;12743;52.262;6.172;2023-01-01T01:03:21;99545.94;;;14.52
24586;BMP280;12743;52.262;6.172;2023-01-01T01:06:00;99527.44;;;14.63
24586;BMP280;12743;52.262;6.172;2023-01-01T01:08:36;99571.59;;;14.70
24586;BMP280;12743;52.262;6.172;2023-01-01T01:11:23;99577.63;;;14.74
24586;BMP280;12743;52.262;6.172;2023-01-01T01:13:54;99597.63;;;14.78
24586;BMP280;12743;52.262;6.172;2023-01-01T01:16:24;99612.00;;;14.74
24586;BMP280;12743;52.262;6.172;2023-01-01T01:18:54;99613.50;;;14.82
24586;BMP280;12743;52.262;6.172;2023-01-01T01:21:21;99659.16;;;14.89
24586;BMP280;12743;52.262;6.172;2023-01-01T01:23:49;99594.25;;;14.67
24586;BMP280;12743;52.262;6.172;2023-01-01T01:26:25;99590.84;;;14.70
24586;BMP280;12743;52.262;6.172;2023-01-01T01:28:52;99562.19;;;14.55
24586;BMP280;12743;52.262;6.172;2023-01-01T01:31:20;99534.25;;;14.54
24586;BMP280;12743;52.262;6.172;2023-01-01T01:33:48;99565.94;;;14.68
24586;BMP280;12743;52.262;6.172;2023-01-01T01:36:16;99562.19;;;14.62
24586;BMP280;12743;52.262;6.172;2023-01-01T01:38:43;99550.13;;;14.54
24586;BMP280;12743;52.262;6.172;2023-01-01T01:41:12;99504.84;;;14.48
24586;BMP280;12743;52.262;6.172;2023-01-01T01:46:40;99531.63;;;14.54
24586;BMP280;12743;52.262;6.172;2023-01-01T01:49:14;99554.63;;;14.64
24586;BMP280;12743;52.262;6.172;2023-01-01T01:51:42;99515.38;;;14.55
24586;BMP280;12743;52.262;6.172;2023-01-01T01:54:15;99462.94;;;14.39
24586;BMP280;12743;52.262;6.172;2023-01-01T01:56:47;99372.09;;;14.16
24586;BMP280;12743;52.262;6.172;2023-01-01T01:59:16;99432.44;;;14.24
24586;BMP280;12743;52.262;6.172;2023-01-01T02:01:44;99487.09;;;14.34
24586;BMP280;12743;52.262;6.172;2023-01-01T02:04:11;99491.66;;;14.30
24586;BMP280;12743;52.262;6.172;2023-01-01T02:06:39;99472.03;;;14.28
24586;BMP280;12743;52.262;6.172;2023-01-01T02:09:07;99424.91;;;14.16
24586;BMP280;12743;52.262;6.172;2023-01-01T02:11:35;99416.56;;;14.07
24586;BMP280;12743;52.262;6.172;2023-01-01T02:14:02;99425.66;;;14.06
24586;BMP280;12743;52.262;6.172;2023-01-01T02:16:48;99432.81;;;14.05
24586;BMP280;12743;52.262;6.172;2023-01-01T02:24:39;99491.66;;;14.06
24586;BMP280;12743;52.262;6.172;2023-01-01T02:29:47;99490.50;;;14.00
24586;BMP280;12743;52.262;6.172;2023-01-01T02:32:19;99474.28;;;13.80
24586;BMP280;12743;52.262;6.172;2023-01-01T02:35:00;99535.38;;;14.03
24586;BMP280;12743;52.262;6.172;2023-01-01T02:37:52;99507.47;;;13.95
24586;BMP280;12743;52.262;6.172;2023-01-01T02:40:22;99556.47;;;14.07
24586;BMP280;12743;52.262;6.172;2023-01-01T02:42:51;99590.06;;;14.10
24586;BMP280;12743;52.262;6.172;2023-01-01T02:45:18;99597.22;;;14.13
24586;BMP280;12743;52.262;6.172;2023-01-01T02:47:45;99605.56;;;14.15
24586;BMP280;12743;52.262;6.172;2023-01-01T02:50:29;99597.59;;;14.01
24586;BMP280;12743;52.262;6.172;2023-01-01T02:55:57;99676.47;;;14.20
24586;BMP280;12743;52.262;6.172;2023-01-01T02:58:37;99692.34;;;14.23
24586;BMP280;12743;52.262;6.172;2023-01-01T03:01:33;99701.41;;;14.33
24586;BMP280;12743;52.262;6.172;2023-01-01T03:04:23;99690.41;;;14.20
24586;BMP280;12743;52.262;6.172;2023-01-01T03:06:57;99705.56;;;14.34
24586;BMP280;12743;52.262;6.172;2023-01-01T03:10:02;99698.75;;;14.29
24586;BMP280;12743;52.262;6.172;2023-01-01T03:12:38;99739.50;;;14.32
24586;BMP280;12743;52.262;6.172;2023-01-01T03:20:36;99788.25;;;14.41
24586;BMP280;12743;52.262;6.172;2023-01-01T03:23:06;99766.34;;;14.41
24586;BMP280;12743;52.262;6.172;2023-01-01T03:25:38;99778.72;;;14.26
24586;BMP280;12743;52.262;6.172;2023-01-01T03:28:11;99809.34;;;14.38
24586;BMP280;12743;52.262;6.172;2023-01-01T03:30:39;99757.59;;;14.16
24586;BMP280;12743;52.262;6.172;2023-01-01T03:33:21;99760.22;;;14.16
24586;BMP280;12743;52.262;6.172;2023-01-01T03:36:11;99752.25;;;14.05
24586;BMP280;12743;52.262;6.172;2023-01-01T03:38:42;99763.22;;;14.14
24586;BMP280;12743;52.262;6.172;2023-01-01T03:41:17;99732.28;;;14.11
24586;BMP280;12743;52.262;6.172;2023-01-01T03:46:37;99774.53;;;14.11
24586;BMP280;12743;52.262;6.172;2023-01-01T03:49:07;99776.00;;;14.05
24586;BMP280;12743;52.262;6.172;2023-01-01T03:57:24;99772.56;;;13.98
24586;BMP280;12743;52.262;6.172;2023-01-01T04:00:07;99802.03;;;14.10
24586;BMP280;12743;52.262;6.172;2023-01-01T04:02:58;99811.09;;;14.13
24586;BMP280;12743;52.262;6.172;2023-01-01T04:05:27;99811.84;;;14.10
24586;BMP280;12743;52.262;6.172;2023-01-01T04:07:55;99822.41;;;14.06
24586;BMP280;12743;52.262;6.172;2023-01-01T04:10:23;99821.25;;;14.07
24586;BMP280;12743;52.262;6.172;2023-01-01T04:12:52;99806.53;;;14.03
24586;BMP280;12743;52.262;6.172;2023-01-01T04:15:22;99803.91;;;14.03
24586;BMP280;12743;52.262;6.172;2023-01-01T04:17:50;99820.13;;;14.05
24586;BMP280;12743;52.262;6.172;2023-01-01T04:20:17;99806.56;;;14.06
24586;BMP280;12743;52.262;6.172;2023-01-01T04:22:44;99823.13;;;14.07
24586;BMP280;12743;52.262;6.172;2023-01-01T04:25:12;99843.91;;;14.08
24586;BMP280;12743;52.262;6.172;2023-01-01T04:27:39;99814.81;;;14.01
24586;BMP280;12743;52.262;6.172;2023-01-01T04:30:08;99822.31;;;13.92
24586;BMP280;12743;52.262;6.172;2023-01-01T04:32:35;99833.34;;;14.05
24586;BMP280;12743;52.262;6.172;2023-01-01T04:35:02;99720.44;;;13.81
24586;BMP280;12743;52.262;6.172;2023-01-01T04:37:29;99654.81;;;13.68
24586;BMP280;12743;52.262;6.172;2023-01-01T04:39:55;99607.25;;;13.58
24586;BMP280;12743;52.262;6.172;2023-01-01T04:42:22;99439.13;;;13.34
24586;BMP280;12743;52.262;6.172;2023-01-01T04:44:48;99350.59;;;13.15
24586;BMP280;12743;52.262;6.172;2023-01-01T04:47:15;99288.09;;;13.05
24586;BMP280;12743;52.262;6.172;2023-01-01T04:49:41;99251.56;;;12.97
24586;BMP280;12743;52.262;6.172;2023-01-01T04:52:08;99222.56;;;12.82
24586;BMP280;12743;52.262;6.172;2023-01-01T04:54:35;99058.88;;;12.66
24586;BMP280;12743;52.262;6.172;2023-01-01T04:57:01;98917.09;;;12.26
24586;BMP280;12743;52.262;6.172;2023-01-01T04:59:29;98933.28;;;12.39
24586;BMP280;12743;52.262;6.172;2023-01-01T05:01:56;98934.75;;;12.26
24586;BMP280;12743;52.262;6.172;2023-01-01T05:04:23;99061.84;;;12.33
24586;BMP280;12743;52.262;6.172;2023-01-01T05:06:49;99078.41;;;12.34
24586;BMP280;12743;52.262;6.172;2023-01-01T05:09:16;99057.75;;;12.32
24586;BMP280;12743;52.262;6.172;2023-01-01T05:11:42;98976.88;;;12.29
24586;BMP280;12743;52.262;6.172;2023-01-01T05:14:09;98934.75;;;12.26
24586;BMP280;12743;52.262;6.172;2023-01-01T05:16:37;98897.94;;;12.22
24586;BMP280;12743;52.262;6.172;2023-01-01T05:19:05;98881.41;;;12.21
24586;BMP280;12743;52.262;6.172;2023-01-01T05:21:34;98860.34;;;12.21
24586;BMP280;12743;52.262;6.172;2023-01-01T05:24:03;98809.25;;;12.08
24586;BMP280;12743;52.262;6.172;2023-01-01T05:26:32;98854.72;;;12.16
24586;BMP280;12743;52.262;6.172;2023-01-01T05:29:00;98870.13;;;12.25
24586;BMP280;12743;52.262;6.172;2023-01-01T05:31:30;98897.94;;;12.26
24586;BMP280;12743;52.262;6.172;2023-01-01T05:33:57;98924.63;;;12.20
24586;BMP280;12743;52.262;6.172;2023-01-01T05:36:28;98965.22;;;12.34
24586;BMP280;12743;52.262;6.172;2023-01-01T05:38:55;98992.69;;;12.36
24586;BMP280;12743;52.262;6.172;2023-01-01T05:41:23;99034.03;;;12.43
24586;BMP280;12743;52.262;6.172;2023-01-01T05:43:50;99068.25;;;12.46
24586;BMP280;12743;52.262;6.172;2023-01-01T05:46:22;99081.03;;;12.48
24586;BMP280;12743;52.262;6.172;2023-01-01T05:48:50;99152.16;;;12.51
24586;BMP280;12743;52.262;6.172;2023-01-01T05:51:20;99236.81;;;12.60
24586;BMP280;12743;52.262;6.172;2023-01-01T05:53:47;99334.28;;;12.67
24586;BMP280;12743;52.262;6.172;2023-01-01T05:56:14;99498.09;;;12.90
24586;BMP280;12743;52.262;6.172;2023-01-01T05:58:42;99552.31;;;12.91
24586;BMP280;12743;52.262;6.172;2023-01-01T06:01:21;99563.22;;;12.93
24586;BMP280;12743;52.262;6.172;2023-01-01T06:03:48;99591.50;;;12.97
24586;BMP280;12743;52.262;6.172;2023-01-01T06:06:17;99613.31;;;13.01
24586;BMP280;12743;52.262;6.172;2023-01-01T06:09:01;99614.84;;;13.02
24586;BMP280;12743;52.262;6.172;2023-01-01T06:11:30;99584.59;;;12.81
24586;BMP280;12743;52.262;6.172;2023-01-01T06:13:58;99608.06;;;12.97
24586;BMP280;12743;52.262;6.172;2023-01-01T06:16:27;99669.13;;;13.06
24586;BMP280;12743;52.262;6.172;2023-01-01T06:18:53;99679.19;;;12.93
24586;BMP280;12743;52.262;6.172;2023-01-01T06:21:23;99731.91;;;13.01
24586;BMP280;12743;52.262;6.172;2023-01-01T06:23:50;99751.41;;;12.89
24586;BMP280;12743;52.262;6.172;2023-01-01T06:26:21;99846.78;;;13.02
24586;BMP280;12743;52.262;6.172;2023-01-01T06:28:48;99977.03;;;13.01
24586;BMP280;12743;52.262;6.172;2023-01-01T06:31:17;99993.25;;;12.99
24586;BMP280;12743;52.262;6.172;2023-01-01T06:33:45;100023.38;;;13.02
24586;BMP280;12743;52.262;6.172;2023-01-01T06:36:13;99961.44;;;12.85
24586;BMP280;12743;52.262;6.172;2023-01-01T06:38:42;100009.63;;;12.85
24586;BMP280;12743;52.262;6.172;2023-01-01T06:41:11;100032.22;;;12.86
24586;BMP280;12743;52.262;6.172;2023-01-01T06:43:38;100080.00;;;12.85
24586;BMP280;12743;52.262;6.172;2023-01-01T06:46:13;100115.84;;;12.89
24586;BMP280;12743;52.262;6.172;2023-01-01T06:48:40;100141.41;;;12.85
24586;BMP280;12743;52.262;6.172;2023-01-01T06:51:16;100184.72;;;12.88
24586;BMP280;12743;52.262;6.172;2023-01-01T06:53:43;100151.06;;;12.78
24586;BMP280;12743;52.262;6.172;2023-01-01T06:56:11;100152.50;;;12.75
24586;BMP280;12743;52.262;6.172;2023-01-01T06:58:37;100204.09;;;12.76
24586;BMP280;12743;52.262;6.172;2023-01-01T07:01:15;100215.81;;;12.79
24586;BMP280;12743;52.262;6.172;2023-01-01T07:03:43;100212.34;;;12.75
24586;BMP280;12743;52.262;6.172;2023-01-01T07:06:10;100194.63;;;12.72
24586;BMP280;12743;52.262;6.172;2023-01-01T07:08:36;100173.00;;;12.63
24586;BMP280;12743;52.262;6.172;2023-01-01T07:11:04;100188.50;;;12.68
24586;BMP280;12743;52.262;6.172;2023-01-01T07:13:31;100135.31;;;12.59
24586;BMP280;12743;52.262;6.172;2023-01-01T07:15:58;100116.78;;;12.55
24586;BMP280;12743;52.262;6.172;2023-01-01T07:18:25;100136.94;;;12.44
24586;BMP280;12743;52.262;6.172;2023-01-01T07:21:02;100130.56;;;12.45
24586;BMP280;12743;52.262;6.172;2023-01-01T07:23:32;100179.09;;;12.44
24586;BMP280;12743;52.262;6.172;2023-01-01T07:25:59;100200.31;;;12.55
24586;BMP280;12743;52.262;6.172;2023-01-01T07:28:26;100160.22;;;12.42
24586;BMP280;12743;52.262;6.172;2023-01-01T07:30:52;100119.06;;;12.34
24586;BMP280;12743;52.262;6.172;2023-01-01T07:33:21;100102.13;;;12.35
24586;BMP280;12743;52.262;6.172;2023-01-01T07:35:48;100123.50;;;12.30
24586;BMP280;12743;52.262;6.172;2023-01-01T07:38:15;100161.94;;;12.35
24586;BMP280;12743;52.262;6.172;2023-01-01T07:40:42;100146.44;;;12.30
24586;BMP280;12743;52.262;6.172;2023-01-01T07:43:09;100075.16;;;12.19
24586;BMP280;12743;52.262;6.172;2023-01-01T07:45:37;100014.75;;;12.03
24586;BMP280;12743;52.262;6.172;2023-01-01T07:48:04;100038.47;;;12.07
24586;BMP280;12743;52.262;6.172;2023-01-01T07:50:31;100032.41;;;12.03
24586;BMP280;12743;52.262;6.172;2023-01-01T07:52:58;100030.44;;;12.00
24586;BMP280;12743;52.262;6.172;2023-01-01T07:55:26;100028.53;;;11.97
24586;BMP280;12743;52.262;6.172;2023-01-01T07:57:52;100068.00;;;11.97
24586;BMP280;12743;52.262;6.172;2023-01-01T08:00:20;100065.63;;;11.92
24586;BMP280;12743;52.262;6.172;2023-01-01T08:02:47;100051.94;;;11.83
24586;BMP280;12743;52.262;6.172;2023-01-01T08:05:14;100087.66;;;11.84
24586;BMP280;12743;52.262;6.172;2023-01-01T08:07:47;100054.56;;;11.64
24586;BMP280;12743;52.262;6.172;2023-01-01T08:10:15;100062.69;;;11.74
24586;BMP280;12743;52.262;6.172;2023-01-01T08:12:42;100070.13;;;11.72
24586;BMP280;12743;52.262;6.172;2023-01-01T08:15:09;100065.50;;;11.66
24586;BMP280;12743;52.262;6.172;2023-01-01T08:17:36;100033.78;;;11.59
24586;BMP280;12743;52.262;6.172;2023-01-01T08:20:11;100001.78;;;11.53
24586;BMP280;12743;52.262;6.172;2023-01-01T08:22:40;100037.03;;;11.52
24586;BMP280;12743;52.262;6.172;2023-01-01T08:25:07;100035.88;;;11.49
24586;BMP280;12743;52.262;6.172;2023-01-01T08:27:33;100015.44;;;11.43
24586;BMP280;12743;52.262;6.172;2023-01-01T08:30:00;99985.91;;;11.30
24586;BMP280;12743;52.262;6.172;2023-01-01T08:32:26;99992.41;;;11.36
24586;BMP280;12743;52.262;6.172;2023-01-01T08:34:53;100050.00;;;11.41
24586;BMP280;12743;52.262;6.172;2023-01-01T08:37:20;100052.88;;;11.36
24586;BMP280;12743;52.262;6.172;2023-01-01T08:39:49;100058.81;;;11.33
24586;BMP280;12743;52.262;6.172;2023-01-01T08:42:16;100062.97;;;11.34
24586;BMP280;12743;52.262;6.172;2023-01-01T08:44:42;100044.84;;;11.29
24586;BMP280;12743;52.262;6.172;2023-01-01T08:49:44;100041.81;;;11.27
24586;BMP280;12743;52.262;6.172;2023-01-01T08:52:11;100033.25;;;11.30
24586;BMP280;12743;52.262;6.172;2023-01-01T08:54:37;100049.34;;;11.29
24586;BMP280;12743;52.262;6.172;2023-01-01T08:57:04;100018.81;;;11.24
24586;BMP280;12743;52.262;6.172;2023-01-01T08:59:30;100031.69;;;11.29
24586;BMP280;12743;52.262;6.172;2023-01-01T09:01:57;100012.53;;;11.29
24586;BMP280;12743;52.262;6.172;2023-01-01T09:04:25;100019.72;;;11.32
24586;BMP280;12743;52.262;6.172;2023-01-01T09:06:52;100017.84;;;11.32
24586;BMP280;12743;52.262;6.172;2023-01-01T09:09:19;100012.25;;;11.34
24586;BMP280;12743;52.262;6.172;2023-01-01T09:11:50;99986.25;;;11.29
24586;BMP280;12743;52.262;6.172;2023-01-01T09:14:17;99996.44;;;11.30
24586;BMP280;12743;52.262;6.172;2023-01-01T09:16:44;100013.22;;;11.26
24586;BMP280;12743;52.262;6.172;2023-01-01T09:19:11;100029.84;;;11.30
24586;BMP280;12743;52.262;6.172;2023-01-01T09:21:38;100000.31;;;11.36
24586;BMP280;12743;52.262;6.172;2023-01-01T09:24:05;100013.19;;;11.41
24586;BMP280;12743;52.262;6.172;2023-01-01T09:26:32;100021.78;;;11.38
24586;BMP280;12743;52.262;6.172;2023-01-01T09:28:58;100030.41;;;11.39
24586;BMP280;12743;52.262;6.172;2023-01-01T09:31:25;99976.91;;;11.31
24586;BMP280;12743;52.262;6.172;2023-01-01T09:33:51;99986.75;;;11.34
24586;BMP280;12743;52.262;6.172;2023-01-01T09:38:52;99968.53;;;11.26
24586;BMP280;12743;52.262;6.172;2023-01-01T09:41:23;99962.66;;;11.32
24586;BMP280;12743;52.262;6.172;2023-01-01T09:46:27;99946.09;;;11.28
24586;BMP280;12743;52.262;6.172;2023-01-01T09:49:01;99940.19;;;11.35
24586;BMP280;12743;52.262;6.172;2023-01-01T09:51:33;99950.03;;;11.38
24586;BMP280;12743;52.262;6.172;2023-01-01T09:54:10;99931.50;;;11.31
24586;BMP280;12743;52.262;6.172;2023-01-01T09:56:39;99939.13;;;11.39
24586;BMP280;12743;52.262;6.172;2023-01-01T09:59:08;99973.59;;;11.54
24586;BMP280;12743;52.262;6.172;2023-01-01T10:12:45;99936.28;;;11.67
24586;BMP280;12743;52.262;6.172;2023-01-01T10:15:19;99923.91;;;11.68
24586;BMP280;12743;52.262;6.172;2023-01-01T10:17:51;99904.59;;;11.60
24586;BMP280;12743;52.262;6.172;2023-01-01T10:20:25;99903.56;;;11.65
24586;BMP280;12743;52.262;6.172;2023-01-01T10:23:01;99878.69;;;11.62
24586;BMP280;12743;52.262;6.172;2023-01-01T10:25:30;99906.25;;;11.68
24586;BMP280;12743;52.262;6.172;2023-01-01T10:28:05;99899.09;;;11.69
24586;BMP280;12743;52.262;6.172;2023-01-01T10:30:32;99888.31;;;11.74
24586;BMP280;12743;52.262;6.172;2023-01-01T10:32:58;99879.00;;;11.80
24586;BMP280;12743;52.262;6.172;2023-01-01T10:35:38;99913.31;;;11.87
24586;BMP280;12743;52.262;6.172;2023-01-01T10:38:05;99900.06;;;11.80
24586;BMP280;12743;52.262;6.172;2023-01-01T10:40:32;99896.66;;;11.79
24586;BMP280;12743;52.262;6.172;2023-01-01T10:43:00;99910.00;;;11.90
24586;BMP280;12743;52.262;6.172;2023-01-01T10:45:54;99899.06;;;11.88
24586;BMP280;12743;52.262;6.172;2023-01-01T10:48:26;99902.84;;;11.90
24586;BMP280;12743;52.262;6.172;2023-01-01T10:53:41;99843.09;;;11.91
24586;BMP280;12743;52.262;6.172;2023-01-01T10:56:19;99829.25;;;11.94
24586;BMP280;12743;52.262;6.172;2023-01-01T11:04:02;99750.97;;;11.87
24586;BMP280;12743;52.262;6.172;2023-01-01T11:06:46;99721.31;;;11.90
24586;BMP280;12743;52.262;6.172;2023-01-01T11:09:27;99684.44;;;11.87
24586;BMP280;12743;52.262;6.172;2023-01-01T11:11:57;99660.41;;;11.88
24586;BMP280;12743;52.262;6.172;2023-01-01T11:14:48;99626.16;;;11.81
24586;BMP280;12743;52.262;6.172;2023-01-01T11:17:23;99633.00;;;11.89
24586;BMP280;12743;52.262;6.172;2023-01-01T11:19:50;99625.47;;;11.88
24586;BMP280;12743;52.262;6.172;2023-01-01T11:25:18;99647.25;;;11.88
24586;BMP280;12743;52.262;6.172;2023-01-01T11:27:45;99632.59;;;11.87
24586;BMP280;12743;52.262;6.172;2023-01-01T11:32:47;99674.00;;;11.94
24586;BMP280;12743;52.262;6.172;2023-01-01T11:35:22;99666.56;;;11.99
24586;BMP280;12743;52.262;6.172;2023-01-01T11:37:51;99676.31;;;11.99
24586;BMP280;12743;52.262;6.172;2023-01-01T11:40:24;99699.63;;;11.97
24586;BMP280;12743;52.262;6.172;2023-01-01T11:42:56;99715.88;;;12.06
24586;BMP280;12743;52.262;6.172;2023-01-01T11:45:26;99689.88;;;12.01
24586;BMP280;12743;52.262;6.172;2023-01-01T11:48:05;99681.94;;;11.97
24586;BMP280;12743;52.262;6.172;2023-01-01T11:50:40;99676.75;;;12.01
24586;BMP280;12743;52.262;6.172;2023-01-01T11:55:54;99678.25;;;12.05
24586;BMP280;12743;52.262;6.172;2023-01-01T11:58:33;99648.94;;;12.03
24586;BMP280;12743;52.262;6.172;2023-01-01T12:01:25;99649.75;;;12.07
24586;BMP280;12743;52.262;6.172;2023-01-01T12:06:41;99618.16;;;12.07
24586;BMP280;12743;52.262;6.172;2023-01-01T12:11:50;99606.16;;;12.10
24586;BMP280;12743;52.262;6.172;2023-01-01T12:14:41;99621.97;;;12.13
24586;BMP280;12743;52.262;6.172;2023-01-01T12:17:17;99621.22;;;12.13
24586;BMP280;12743;52.262;6.172;2023-01-01T12:20:00;99620.84;;;12.11
24586;BMP280;12743;52.262;6.172;2023-01-01T12:22:28;99608.81;;;12.10
24586;BMP280;12743;52.262;6.172;2023-01-01T12:24:55;99610.69;;;12.13
24586;BMP280;12743;52.262;6.172;2023-01-01T12:30:54;99615.88;;;12.06
24586;BMP280;12743;52.262;6.172;2023-01-01T12:36:50;99584.38;;;12.13
24586;BMP280;12743;52.262;6.172;2023-01-01T12:42:25;99552.69;;;12.02
24586;BMP280;12743;52.262;6.172;2023-01-01T12:45:15;99555.34;;;12.06
24586;BMP280;12743;52.262;6.172;2023-01-01T12:48:35;99524.66;;;12.17
24586;BMP280;12743;52.262;6.172;2023-01-01T12:53:40;99490.75;;;12.12
24586;BMP280;12743;52.262;6.172;2023-01-01T12:56:13;99468.22;;;12.11
24586;BMP280;12743;52.262;6.172;2023-01-01T12:58:57;99467.47;;;12.14
24586;BMP280;12743;52.262;6.172;2023-01-01T13:01:31;99484.38;;;12.13
24586;BMP280;12743;52.262;6.172;2023-01-01T13:04:05;99463.66;;;12.08
24586;BMP280;12743;52.262;6.172;2023-01-01T13:06:39;99457.66;;;12.07
24586;BMP280;12743;52.262;6.172;2023-01-01T13:09:11;99452.03;;;12.12
24586;BMP280;12743;52.262;6.172;2023-01-01T13:11:39;99454.31;;;12.14
24586;BMP280;12743;52.262;6.172;2023-01-01T13:14:10;99450.13;;;12.09
24586;BMP280;12743;52.262;6.172;2023-01-01T13:16:39;99464.81;;;12.10
24586;BMP280;12743;52.262;6.172;2023-01-01T13:21:48;99470.50;;;12.16
24586;BMP280;12743;52.262;6.172;2023-01-01T13:24:22;99473.50;;;12.18
24586;BMP280;12743;52.262;6.172;2023-01-01T13:26:50;99481.81;;;12.20
24586;BMP280;12743;52.262;6.172;2023-01-01T13:34:32;99479.16;;;12.20
24586;BMP280;12743;52.262;6.172;2023-01-01T13:45:24;99514.53;;;12.23
24586;BMP280;12743;52.262;6.172;2023-01-01T13:48:46;99495.28;;;12.11
24586;BMP280;12743;52.262;6.172;2023-01-01T14:02:52;99582.22;;;12.22
24586;BMP280;12743;52.262;6.172;2023-01-01T14:07:57;99562.56;;;12.12
24586;BMP280;12743;52.262;6.172;2023-01-01T14:10:34;99572.06;;;12.20
24586;BMP280;12743;52.262;6.172;2023-01-01T14:15:35;99581.41;;;12.18
24586;BMP280;12743;52.262;6.172;2023-01-01T14:18:09;99593.84;;;12.17
24586;BMP280;12743;52.262;6.172;2023-01-01T14:20:41;99616.03;;;12.20
24586;BMP280;12743;52.262;6.172;2023-01-01T14:23:16;99643.47;;;12.19
24586;BMP280;12743;52.262;6.172;2023-01-01T14:25:44;99653.28;;;12.22
24586;BMP280;12743;52.262;6.172;2023-01-01T14:28:20;99664.19;;;12.20
24586;BMP280;12743;52.262;6.172;2023-01-01T14:30:49;99667.13;;;12.15
24586;BMP280;12743;52.262;6.172;2023-01-01T14:33:30;99670.19;;;12.17
24586;BMP280;12743;52.262;6.172;2023-01-01T14:36:00;99672.75;;;12.14
24586;BMP280;12743;52.262;6.172;2023-01-01T14:38:34;99674.22;;;12.11
24586;BMP280;12743;52.262;6.172;2023-01-01T14:43:39;99660.28;;;12.07
24586;BMP280;12743;52.262;6.172;2023-01-01T14:46:06;99646.31;;;12.03
24586;BMP280;12743;52.262;6.172;2023-01-01T14:48:41;99628.66;;;12.04
24586;BMP280;12743;52.262;6.172;2023-01-01T14:51:12;99630.13;;;12.05
24586;BMP280;12743;52.262;6.172;2023-01-01T14:53:40;99622.59;;;12.00
24586;BMP280;12743;52.262;6.172;2023-01-01T14:56:08;99623.69;;;11.99
24586;BMP280;12743;52.262;6.172;2023-01-01T14:58:35;99628.59;;;11.97
24586;BMP280;12743;52.262;6.172;2023-01-01T15:01:15;99604.47;;;11.95
24586;BMP280;12743;52.262;6.172;2023-01-01T15:04:03;99604.06;;;11.93
24586;BMP280;12743;52.262;6.172;2023-01-01T15:06:30;99581.09;;;11.86
24586;BMP280;12743;52.262;6.172;2023-01-01T15:08:58;99574.28;;;11.85
24586;BMP280;12743;52.262;6.172;2023-01-01T15:11:24;99561.44;;;11.77
24586;BMP280;12743;52.262;6.172;2023-01-01T15:13:57;99568.31;;;11.88
24586;BMP280;12743;52.262;6.172;2023-01-01T15:16:28;99555.47;;;11.83
24586;BMP280;12743;52.262;6.172;2023-01-01T15:19:15;99541.59;;;11.83
24586;BMP280;12743;52.262;6.172;2023-01-01T15:21:43;99515.50;;;11.67
24586;BMP280;12743;52.262;6.172;2023-01-01T15:24:11;99525.75;;;11.76
24586;BMP280;12743;52.262;6.172;2023-01-01T15:26:59;99541.97;;;11.81
24586;BMP280;12743;52.262;6.172;2023-01-01T15:29:40;99536.66;;;11.78
24586;BMP280;12743;52.262;6.172;2023-01-01T15:32:13;99532.13;;;11.75
24586;BMP280;12743;52.262;6.172;2023-01-01T15:34:49;99523.06;;;11.72
24586;BMP280;12743;52.262;6.172;2023-01-01T15:39:50;99516.63;;;11.66
24586;BMP280;12743;52.262;6.172;2023-01-01T15:42:33;99519.28;;;11.70
24586;BMP280;12743;52.262;6.172;2023-01-01T15:50:30;99533.91;;;11.67
24586;BMP280;12743;52.262;6.172;2023-01-01T15:53:02;99546.28;;;11.67
24586;BMP280;12743;52.262;6.172;2023-01-01T15:55:34;99534.19;;;11.62
24586;BMP280;12743;52.262;6.172;2023-01-01T15:58:02;99520.53;;;11.49
24586;BMP280;12743;52.262;6.172;2023-01-01T16:00:30;99537.16;;;11.57
24586;BMP280;12743;52.262;6.172;2023-01-01T16:03:17;99514.84;;;11.44
24586;BMP280;12743;52.262;6.172;2023-01-01T16:05:49;99516.81;;;11.51
24586;BMP280;12743;52.262;6.172;2023-01-01T16:08:17;99503.44;;;11.33
24586;BMP280;12743;52.262;6.172;2023-01-01T16:10:46;99511.47;;;11.43
24586;BMP280;12743;52.262;6.172;2023-01-01T16:13:13;99486.06;;;11.25
24586;BMP280;12743;52.262;6.172;2023-01-01T16:15:55;99498.59;;;11.35
24586;BMP280;12743;52.262;6.172;2023-01-01T16:18:33;99506.91;;;11.40
24586;BMP280;12743;52.262;6.172;2023-01-01T16:21:01;99494.78;;;11.32
24586;BMP280;12743;52.262;6.172;2023-01-01T16:23:28;99504.28;;;11.40
24586;BMP280;12743;52.262;6.172;2023-01-01T16:25:55;99501.28;;;11.42
24586;BMP280;12743;52.262;6.172;2023-01-01T16:28:22;99497.13;;;11.37
24586;BMP280;12743;52.262;6.172;2023-01-01T16:30:49;99487.31;;;11.34
24586;BMP280;12743;52.262;6.172;2023-01-01T16:33:20;99477.91;;;11.33